Time,TemperatureF,DewpointF,PressureIn,WindDirection,WindDirectionDegrees,WindSpeedMPH,WindSpeedGustMPH,Humidity,HourlyPrecipIn,Conditions,Clouds,dailyrainin,SoftwareType,DateUTC
2013-05-12 00:02:00,44.0,30.0,30.05,NW,315,1.0,7.0,58,0.00,,,0.00,,2013-05-12 05:02:00,
2013-05-12 00:12:00,44.0,30.0,30.05,NW,315,1.0,7.0,58,0.00,,,0.00,,2013-05-12 05:12:00,
2013-05-12 00:22:00,43.0,30.0,30.05,North,355,0.0,4.0,60,0.00,,,0.00,,2013-05-12 05:22:00,
2013-05-12 00:32:00,42.0,30.0,30.05,North,360,0.0,2.0,62,0.00,,,0.00,,2013-05-12 05:32:00,
2013-05-12 00:42:00,42.0,30.0,30.05,North,360,0.0,2.0,62,0.00,,,0.00,,2013-05-12 05:42:00,
2013-05-12 00:51:00,42.0,31.0,30.05,WNW,302,0.0,3.0,64,0.00,,,0.00,,2013-05-12 05:51:00,
2013-05-12 01:01:00,41.0,31.0,30.06,NNW,339,0.0,2.0,66,0.00,,,0.00,,2013-05-12 06:01:00,
2013-05-12 01:11:00,41.0,31.0,30.06,NNW,339,0.0,2.0,66,0.00,,,0.00,,2013-05-12 06:11:00,
2013-05-12 01:21:00,41.0,31.0,30.06,NNW,340,0.0,1.0,68,0.00,,,0.00,,2013-05-12 06:21:00,
2013-05-12 01:32:00,40.0,31.0,30.06,NNW,340,0.0,0.0,70,0.00,,,0.00,,2013-05-12 06:32:00,
2013-05-12 01:42:00,40.0,31.0,30.06,NNW,340,0.0,0.0,70,0.00,,,0.00,,2013-05-12 06:42:00,
2013-05-12 01:51:00,39.0,31.0,30.06,NNW,340,0.0,0.0,73,0.00,,,0.00,,2013-05-12 06:51:00,
2013-05-12 02:01:00,38.0,30.0,30.06,NNW,340,0.0,0.0,74,0.00,,,0.00,,2013-05-12 07:01:00,
2013-05-12 02:11:00,38.0,30.0,30.06,NNW,340,0.0,0.0,74,0.00,,,0.00,,2013-05-12 07:11:00,
2013-05-12 02:21:00,38.0,31.0,30.06,NNW,340,0.0,3.0,75,0.00,,,0.00,,2013-05-12 07:21:00,
2013-05-12 02:32:00,38.0,31.0,30.06,NNW,339,0.0,1.0,75,0.00,,,0.00,,2013-05-12 07:32:00,
2013-05-12 02:42:00,38.0,31.0,30.06,NNW,339,0.0,1.0,75,0.00,,,0.00,,2013-05-12 07:42:00,
2013-05-12 02:52:00,38.0,30.0,30.06,NNW,336,0.0,2.0,74,0.00,,,0.00,,2013-05-12 07:52:00,
2013-05-12 03:02:00,38.0,30.0,30.06,NW,310,0.0,2.0,74,0.00,,,0.00,,2013-05-12 08:02:00,
2013-05-12 03:11:00,38.0,30.0,30.06,NW,310,0.0,2.0,74,0.00,,,0.00,,2013-05-12 08:11:00,
2013-05-12 03:21:00,38.0,30.0,30.06,NW,310,0.0,2.0,74,0.00,,,0.00,,2013-05-12 08:21:00,
2013-05-12 03:32:00,38.0,31.0,30.06,WNW,302,0.0,4.0,75,0.00,,,0.00,,2013-05-12 08:32:00,
2013-05-12 03:41:00,38.0,31.0,30.06,WNW,302,0.0,4.0,75,0.00,,,0.00,,2013-05-12 08:41:00,
2013-05-12 03:52:00,38.0,31.0,30.06,WNW,302,0.0,2.0,76,0.00,,,0.00,,2013-05-12 08:52:00,
2013-05-12 04:01:00,38.0,31.0,30.06,NW,323,2.0,5.0,75,0.00,,,0.00,,2013-05-12 09:01:00,
2013-05-12 04:11:00,38.0,31.0,30.06,NW,323,2.0,5.0,75,0.00,,,0.00,,2013-05-12 09:11:00,
2013-05-12 04:21:00,39.0,31.0,30.07,North,360,2.0,7.0,74,0.00,,,0.00,,2013-05-12 09:21:00,
2013-05-12 04:33:00,38.0,30.0,30.07,NNW,342,3.0,9.0,74,0.00,,,0.00,,2013-05-12 09:33:00,
2013-05-12 04:42:00,38.0,30.0,30.07,NNW,342,3.0,9.0,74,0.00,,,0.00,,2013-05-12 09:42:00,
2013-05-12 04:52:00,38.0,30.0,30.07,NNW,342,3.0,9.0,73,0.00,,,0.00,,2013-05-12 09:52:00,
2013-05-12 05:03:00,38.0,30.0,30.07,NNW,341,4.0,8.0,72,0.00,,,0.00,,2013-05-12 10:03:00,
2013-05-12 05:12:00,38.0,30.0,30.07,NNW,341,4.0,8.0,72,0.00,,,0.00,,2013-05-12 10:12:00,
2013-05-12 05:22:00,38.0,30.0,30.07,North,5,3.0,8.0,73,0.00,,,0.00,,2013-05-12 10:22:00,
2013-05-12 05:33:00,38.0,30.0,30.07,North,360,3.0,8.0,72,0.00,,,0.00,,2013-05-12 10:33:00,
2013-05-12 05:42:00,38.0,30.0,30.07,North,360,3.0,8.0,72,0.00,,,0.00,,2013-05-12 10:42:00,
2013-05-12 05:52:00,37.0,29.0,30.08,North,355,2.0,10.0,73,0.00,,,0.00,,2013-05-12 10:52:00,
2013-05-12 06:02:00,37.0,29.0,30.09,North,349,1.0,7.0,73,0.00,,,0.00,,2013-05-12 11:02:00,
2013-05-12 06:12:00,37.0,29.0,30.09,North,349,1.0,7.0,73,0.00,,,0.00,,2013-05-12 11:12:00,
2013-05-12 06:22:00,37.0,29.0,30.09,NNE,17,2.0,7.0,74,0.00,,,0.00,,2013-05-12 11:22:00,
2013-05-12 06:32:00,37.0,29.0,30.09,North,349,1.0,8.0,73,0.00,,,0.00,,2013-05-12 11:32:00,
2013-05-12 06:42:00,37.0,29.0,30.09,North,349,1.0,8.0,73,0.00,,,0.00,,2013-05-12 11:42:00,
2013-05-12 06:52:00,38.0,30.0,30.09,NNW,348,4.0,8.0,72,0.00,,,0.00,,2013-05-12 11:52:00,
2013-05-12 07:02:00,38.0,30.0,30.10,NW,324,3.0,8.0,72,0.00,,,0.00,,2013-05-12 12:02:00,
2013-05-12 07:11:00,38.0,30.0,30.10,NW,324,3.0,8.0,72,0.00,,,0.00,,2013-05-12 12:11:00,
2013-05-12 07:21:00,39.0,31.0,30.10,North,360,3.0,9.0,72,0.00,,,0.00,,2013-05-12 12:21:00,
2013-05-12 07:32:00,40.0,31.0,30.10,NNW,348,3.0,8.0,70,0.00,,,0.00,,2013-05-12 12:32:00,
2013-05-12 07:41:00,40.0,31.0,30.10,NNW,348,3.0,8.0,70,0.00,,,0.00,,2013-05-12 12:41:00,
2013-05-12 07:51:00,41.0,31.0,30.11,North,355,6.0,14.0,67,0.00,,,0.00,,2013-05-12 12:51:00,
2013-05-12 08:02:00,43.0,32.0,30.11,NNW,338,5.0,10.0,65,0.00,,,0.00,,2013-05-12 13:02:00,
2013-05-12 08:11:00,43.0,32.0,30.11,NNW,338,5.0,10.0,65,0.00,,,0.00,,2013-05-12 13:11:00,
2013-05-12 08:21:00,44.0,31.0,30.11,North,360,5.0,14.0,61,0.00,,,0.00,,2013-05-12 13:21:00,
2013-05-12 08:32:00,44.0,29.0,30.11,North,360,8.0,14.0,56,0.00,,,0.00,,2013-05-12 13:32:00,
2013-05-12 08:42:00,44.0,29.0,30.11,North,360,8.0,14.0,56,0.00,,,0.00,,2013-05-12 13:42:00,
2013-05-12 08:52:00,45.0,30.0,30.12,North,5,8.0,14.0,56,0.00,,,0.00,,2013-05-12 13:52:00,
2013-05-12 09:01:00,45.0,31.0,30.12,North,5,8.0,18.0,57,0.00,,,0.00,,2013-05-12 14:01:00,
2013-05-12 09:11:00,45.0,31.0,30.12,North,5,8.0,18.0,57,0.00,,,0.00,,2013-05-12 14:11:00,
2013-05-12 09:21:00,46.0,30.0,30.12,NNW,348,6.0,14.0,54,0.00,,,0.00,,2013-05-12 14:21:00,
2013-05-12 09:32:00,47.0,32.0,30.12,NNW,338,5.0,12.0,55,0.00,,,0.00,,2013-05-12 14:32:00,
2013-05-12 09:42:00,47.0,29.0,30.12,NW,321,8.0,15.0,49,0.00,,,0.00,,2013-05-12 14:42:00,
2013-05-12 09:52:00,47.0,29.0,30.12,NW,321,8.0,15.0,49,0.00,,,0.00,,2013-05-12 14:52:00,
2013-05-12 10:01:00,48.0,32.0,30.12,North,355,7.0,18.0,53,0.00,,,0.00,,2013-05-12 15:01:00,
2013-05-12 10:11:00,48.0,32.0,30.12,North,355,7.0,18.0,53,0.00,,,0.00,,2013-05-12 15:11:00,
2013-05-12 10:21:00,48.0,28.0,30.12,NW,320,6.0,15.0,45,0.00,,,0.00,,2013-05-12 15:21:00,
2013-05-12 10:34:00,48.0,29.0,30.12,NNW,331,7.0,16.0,48,0.00,,,0.00,,2013-05-12 15:34:00,
2013-05-12 10:42:00,48.0,29.0,30.12,NNW,331,7.0,16.0,48,0.00,,,0.00,,2013-05-12 15:42:00,
2013-05-12 10:52:00,49.0,31.0,30.12,North,360,8.0,14.0,49,0.00,,,0.00,,2013-05-12 15:52:00,
2013-05-12 11:02:00,50.0,29.0,30.13,NNW,344,7.0,15.0,44,0.00,,,0.00,,2013-05-12 16:02:00,
2013-05-12 11:12:00,50.0,29.0,30.13,NNW,344,7.0,15.0,44,0.00,,,0.00,,2013-05-12 16:12:00,
2013-05-12 11:23:00,50.0,30.0,30.13,NNW,348,7.0,13.0,46,0.00,,,0.00,,2013-05-12 16:23:00,
2013-05-12 11:33:00,50.0,31.0,30.13,East,82,2.0,12.0,48,0.00,,,0.00,,2013-05-12 16:33:00,
2013-05-12 11:42:00,50.0,31.0,30.13,East,82,2.0,12.0,48,0.00,,,0.00,,2013-05-12 16:42:00,
2013-05-12 11:52:00,51.0,30.0,30.13,NNE,13,6.0,13.0,45,0.00,,,0.00,,2013-05-12 16:52:00,
2013-05-12 12:02:00,51.0,31.0,30.13,WNW,302,4.0,16.0,47,0.00,,,0.00,,2013-05-12 17:02:00,
2013-05-12 12:12:00,51.0,31.0,30.13,WNW,302,4.0,16.0,47,0.00,,,0.00,,2013-05-12 17:12:00,
2013-05-12 12:22:00,52.0,31.0,30.13,North,5,5.0,13.0,45,0.00,,,0.00,,2013-05-12 17:22:00,
2013-05-12 12:32:00,52.0,31.0,30.13,NW,322,10.0,20.0,45,0.00,,,0.00,,2013-05-12 17:32:00,
2013-05-12 12:42:00,52.0,31.0,30.13,NW,322,10.0,20.0,45,0.00,,,0.00,,2013-05-12 17:42:00,
2013-05-12 12:52:00,53.0,33.0,30.13,NNW,342,6.0,13.0,46,0.00,,,0.00,,2013-05-12 17:52:00,
2013-05-12 13:01:00,53.0,32.0,30.12,NNW,336,7.0,15.0,44,0.00,,,0.00,,2013-05-12 18:01:00,
2013-05-12 13:12:00,53.0,32.0,30.12,NNW,336,7.0,15.0,44,0.00,,,0.00,,2013-05-12 18:12:00,
2013-05-12 13:22:00,54.0,31.0,30.12,WNW,290,7.0,14.0,41,0.00,,,0.00,,2013-05-12 18:22:00,
2013-05-12 13:32:00,53.0,30.0,30.12,North,351,7.0,14.0,41,0.00,,,0.00,,2013-05-12 18:32:00,
2013-05-12 13:42:00,53.0,30.0,30.12,North,351,7.0,14.0,41,0.00,,,0.00,,2013-05-12 18:42:00,
2013-05-12 13:51:00,53.0,32.0,30.12,North,360,5.0,16.0,45,0.00,,,0.00,,2013-05-12 18:51:00,
2013-05-12 14:01:00,54.0,30.0,30.12,WNW,299,6.0,15.0,39,0.00,,,0.00,,2013-05-12 19:01:00,
2013-05-12 14:11:00,54.0,30.0,30.12,WNW,299,6.0,15.0,39,0.00,,,0.00,,2013-05-12 19:11:00,
2013-05-12 14:21:00,55.0,33.0,30.12,NNW,338,8.0,15.0,43,0.00,,,0.00,,2013-05-12 19:21:00,
2013-05-12 14:32:00,56.0,31.0,30.11,WNW,298,4.0,12.0,39,0.00,,,0.00,,2013-05-12 19:32:00,
2013-05-12 14:42:00,56.0,31.0,30.11,WNW,298,4.0,12.0,39,0.00,,,0.00,,2013-05-12 19:42:00,
2013-05-12 14:52:00,56.0,33.0,30.11,NNE,22,4.0,14.0,41,0.00,,,0.00,,2013-05-12 19:52:00,
2013-05-12 15:02:00,56.0,31.0,30.10,NNW,340,6.0,16.0,39,0.00,,,0.00,,2013-05-12 20:02:00,
2013-05-12 15:11:00,56.0,31.0,30.10,NNW,340,6.0,16.0,39,0.00,,,0.00,,2013-05-12 20:11:00,
2013-05-12 15:21:00,56.0,33.0,30.10,NNW,331,4.0,14.0,41,0.00,,,0.00,,2013-05-12 20:21:00,
2013-05-12 15:32:00,57.0,32.0,30.09,NNE,18,7.0,17.0,38,0.00,,,0.00,,2013-05-12 20:32:00,
2013-05-12 15:42:00,57.0,32.0,30.09,NNE,18,7.0,17.0,38,0.00,,,0.00,,2013-05-12 20:42:00,
2013-05-12 15:51:00,57.0,33.0,30.09,NNW,345,4.0,15.0,40,0.00,,,0.00,,2013-05-12 20:51:00,
2013-05-12 16:01:00,57.0,30.0,30.09,NW,325,4.0,16.0,35,0.00,,,0.00,,2013-05-12 21:01:00,
2013-05-12 16:11:00,57.0,30.0,30.09,NW,325,4.0,16.0,35,0.00,,,0.00,,2013-05-12 21:11:00,
2013-05-12 16:21:00,56.0,31.0,30.09,WNW,287,2.0,19.0,39,0.00,,,0.00,,2013-05-12 21:21:00,
2013-05-12 16:33:00,57.0,29.0,30.08,North,360,5.0,14.0,34,0.00,,,0.00,,2013-05-12 21:33:00,
2013-05-12 16:42:00,57.0,29.0,30.08,North,360,5.0,14.0,34,0.00,,,0.00,,2013-05-12 21:42:00,
2013-05-12 16:53:00,57.0,30.0,30.08,WSW,237,4.0,11.0,35,0.00,,,0.00,,2013-05-12 21:53:00,
2013-05-12 17:02:00,57.0,27.0,30.08,North,9,9.0,18.0,32,0.00,,,0.00,,2013-05-12 22:02:00,
2013-05-12 17:12:00,57.0,27.0,30.08,North,9,9.0,18.0,32,0.00,,,0.00,,2013-05-12 22:12:00,
2013-05-12 17:23:00,57.0,31.0,30.08,NNW,327,3.0,14.0,37,0.00,,,0.00,,2013-05-12 22:23:00,
2013-05-12 17:33:00,57.0,30.0,30.08,NW,321,3.0,10.0,35,0.00,,,0.00,,2013-05-12 22:33:00,
2013-05-12 17:42:00,57.0,30.0,30.08,NW,321,3.0,10.0,35,0.00,,,0.00,,2013-05-12 22:42:00,
2013-05-12 17:52:00,58.0,28.0,30.08,NNE,13,5.0,13.0,32,0.00,,,0.00,,2013-05-12 22:52:00,
2013-05-12 18:02:00,57.0,27.0,30.08,NNW,345,6.0,14.0,31,0.00,,,0.00,,2013-05-12 23:02:00,
2013-05-12 18:12:00,57.0,27.0,30.08,NNW,345,6.0,14.0,31,0.00,,,0.00,,2013-05-12 23:12:00,
2013-05-12 18:22:00,56.0,26.0,30.08,WNW,294,4.0,12.0,31,0.00,,,0.00,,2013-05-12 23:22:00,
2013-05-12 18:32:00,56.0,27.0,30.08,NNE,13,2.0,17.0,32,0.00,,,0.00,,2013-05-12 23:32:00,
2013-05-12 18:42:00,56.0,27.0,30.08,NNE,13,2.0,17.0,32,0.00,,,0.00,,2013-05-12 23:42:00,
2013-05-12 18:52:00,56.0,28.0,30.08,WNW,289,6.0,14.0,34,0.00,,,0.00,,2013-05-12 23:52:00,
2013-05-12 19:01:00,55.0,26.0,30.08,NNW,336,2.0,9.0,33,0.00,,,0.00,,2013-05-13 00:01:00,
2013-05-12 19:11:00,55.0,26.0,30.08,NNW,336,2.0,9.0,33,0.00,,,0.00,,2013-05-13 00:11:00,
2013-05-12 19:21:00,55.0,25.0,30.08,NNW,341,6.0,12.0,31,0.00,,,0.00,,2013-05-13 00:21:00,
2013-05-12 19:32:00,54.0,26.0,30.08,NNW,341,4.0,8.0,34,0.00,,,0.00,,2013-05-13 00:32:00,
2013-05-12 19:42:00,54.0,26.0,30.08,NNW,341,4.0,8.0,34,0.00,,,0.00,,2013-05-13 00:42:00,
2013-05-12 19:51:00,53.0,26.0,30.08,North,355,3.0,8.0,35,0.00,,,0.00,,2013-05-13 00:51:00,
2013-05-12 20:01:00,52.0,26.0,30.08,NNE,23,2.0,8.0,36,0.00,,,0.00,,2013-05-13 01:01:00,
2013-05-12 20:11:00,52.0,26.0,30.08,NNE,23,2.0,8.0,36,0.00,,,0.00,,2013-05-13 01:11:00,
2013-05-12 20:22:00,52.0,25.0,30.08,NNE,22,4.0,9.0,35,0.00,,,0.00,,2013-05-13 01:22:00,
2013-05-12 20:31:00,51.0,26.0,30.09,North,5,1.0,6.0,38,0.00,,,0.00,,2013-05-13 01:31:00,
2013-05-12 20:42:00,51.0,26.0,30.09,North,5,1.0,6.0,38,0.00,,,0.00,,2013-05-13 01:42:00,
2013-05-12 20:52:00,50.0,27.0,30.09,North,5,0.0,1.0,41,0.00,,,0.00,,2013-05-13 01:52:00,
2013-05-12 21:01:00,49.0,27.0,30.10,North,5,0.0,1.0,42,0.00,,,0.00,,2013-05-13 02:01:00,
2013-05-12 21:11:00,49.0,27.0,30.10,North,5,0.0,1.0,42,0.00,,,0.00,,2013-05-13 02:11:00,
2013-05-12 21:21:00,48.0,27.0,30.11,North,5,0.0,0.0,44,0.00,,,0.00,,2013-05-13 02:21:00,
2013-05-12 21:32:00,47.0,28.0,30.11,North,5,0.0,0.0,47,0.00,,,0.00,,2013-05-13 02:32:00,
2013-05-12 21:41:00,47.0,28.0,30.11,North,5,0.0,0.0,47,0.00,,,0.00,,2013-05-13 02:41:00,
2013-05-12 21:51:00,46.0,28.0,30.11,North,5,0.0,0.0,49,0.00,,,0.00,,2013-05-13 02:51:00,
2013-05-12 22:02:00,45.0,29.0,30.11,North,5,0.0,0.0,53,0.00,,,0.00,,2013-05-13 03:02:00,
2013-05-12 22:11:00,45.0,29.0,30.11,North,5,0.0,0.0,53,0.00,,,0.00,,2013-05-13 03:11:00,
2013-05-12 22:21:00,44.0,29.0,30.12,North,5,0.0,0.0,56,0.00,,,0.00,,2013-05-13 03:21:00,
2013-05-12 22:32:00,44.0,31.0,30.12,North,5,0.0,0.0,60,0.00,,,0.00,,2013-05-13 03:32:00,
2013-05-12 22:42:00,44.0,31.0,30.12,North,5,0.0,0.0,60,0.00,,,0.00,,2013-05-13 03:42:00,
2013-05-12 22:52:00,43.0,31.0,30.12,North,5,0.0,0.0,62,0.00,,,0.00,,2013-05-13 03:52:00,
2013-05-12 23:02:00,42.0,30.0,30.12,North,5,0.0,0.0,61,0.00,,,0.00,,2013-05-13 04:02:00,
2013-05-12 23:12:00,42.0,30.0,30.12,North,5,0.0,0.0,61,0.00,,,0.00,,2013-05-13 04:12:00,
2013-05-12 23:23:00,42.0,30.0,30.12,North,5,0.0,0.0,61,0.00,,,0.00,,2013-05-13 04:23:00,
2013-05-12 23:32:00,40.0,29.0,30.12,North,5,0.0,0.0,65,0.00,,,0.00,,2013-05-13 04:32:00,
2013-05-12 23:42:00,40.0,29.0,30.12,North,5,0.0,0.0,65,0.00,,,0.00,,2013-05-13 04:42:00,
2013-05-12 23:52:00,40.0,30.0,30.12,North,5,0.0,0.0,66,0.00,,,0.00,,2013-05-13 04:52:00,